createdAt,value
2023-01-08T00:02:01.034Z,26.65
2023-01-08T00:04:27.612Z,24.90
2023-01-08T00:06:53.885Z,24.58
2023-01-08T00:09:20.431Z,23.98
2023-01-08T00:11:48.629Z,23.95
2023-01-08T00:14:15.583Z,23.20
2023-01-08T00:16:41.918Z,25.70
2023-01-08T00:19:10.076Z,26.15
2023-01-08T00:21:36.353Z,24.95
2023-01-08T00:24:03.754Z,26.92
2023-01-08T00:26:30.155Z,27.10
2023-01-08T00:28:57.119Z,25.13
2023-01-08T00:31:24.550Z,24.58
2023-01-08T00:33:51.360Z,28.95
2023-01-08T00:36:18.812Z,26.98
2023-01-08T00:38:46.451Z,28.15
2023-01-08T00:41:14.278Z,26.92
2023-01-08T00:43:41.214Z,27.05
2023-01-08T00:46:07.839Z,26.45
2023-01-08T00:48:38.054Z,27.73
2023-01-08T00:51:06.588Z,27.05
2023-01-08T00:53:33.530Z,27.75
2023-01-08T00:56:06.009Z,26.88
2023-01-08T00:58:33.277Z,25.73
2023-01-08T01:00:59.927Z,24.77
2023-01-08T01:03:26.716Z,25.70
2023-01-08T01:06:05.770Z,25.55
2023-01-08T01:08:33.741Z,26.52
2023-01-08T01:11:00.148Z,27.15
2023-01-08T01:13:27.964Z,25.00
2023-01-08T01:15:59.100Z,26.27
2023-01-08T01:18:26.887Z,25.45
2023-01-08T01:20:53.619Z,26.20
2023-01-08T01:23:20.449Z,26.88
2023-01-08T01:25:46.759Z,26.85
2023-01-08T01:28:13.383Z,25.40
2023-01-08T01:30:39.679Z,25.35
2023-01-08T01:33:06.675Z,25.50
2023-01-08T01:35:32.936Z,25.60
2023-01-08T01:37:59.594Z,26.33
2023-01-08T01:40:25.930Z,26.33
2023-01-08T01:42:52.729Z,24.45
2023-01-08T01:45:21.645Z,24.73
2023-01-08T01:48:09.005Z,25.15
2023-01-08T01:50:48.015Z,23.17
2023-01-08T01:53:29.895Z,23.67
2023-01-08T01:55:57.089Z,23.50
2023-01-08T01:58:27.211Z,23.60
2023-01-08T02:00:56.560Z,23.83
2023-01-08T02:03:25.521Z,24.95
2023-01-08T02:05:59.921Z,25.13
2023-01-08T02:08:39.222Z,25.73
2023-01-08T02:11:10.394Z,22.40
2023-01-08T02:13:42.287Z,21.65
2023-01-08T02:16:18.319Z,21.17
2023-01-08T02:18:54.772Z,23.05
2023-01-08T02:21:48.023Z,21.80
2023-01-08T02:24:39.468Z,23.08
2023-01-08T02:27:08.262Z,22.38
2023-01-08T02:29:35.247Z,22.73
2023-01-08T02:32:01.687Z,22.10
2023-01-08T02:34:31.338Z,20.50
2023-01-08T02:36:59.713Z,22.48
2023-01-08T02:39:44.728Z,21.42
2023-01-08T02:42:28.181Z,21.88
2023-01-08T02:45:15.985Z,19.23
2023-01-08T02:47:46.387Z,19.42
2023-01-08T02:50:23.175Z,20.67
2023-01-08T02:53:21.856Z,19.25
2023-01-08T02:56:03.173Z,19.70
2023-01-08T02:58:31.359Z,18.95
2023-01-08T03:01:00.989Z,18.65
2023-01-08T03:03:29.473Z,19.35
2023-01-08T03:06:03.065Z,19.58
2023-01-08T03:11:06.498Z,18.70
2023-01-08T03:13:33.450Z,17.10
2023-01-08T03:16:06.834Z,18.35
2023-01-08T03:18:37.686Z,19.83
2023-01-08T03:21:05.714Z,18.63
2023-01-08T03:23:35.382Z,19.00
2023-01-08T03:26:04.353Z,19.25
2023-01-08T03:28:36.611Z,21.58
2023-01-08T03:31:04.847Z,18.40
2023-01-08T03:33:32.624Z,19.17
2023-01-08T03:36:02.647Z,19.85
2023-01-08T03:38:33.843Z,19.27
2023-01-08T03:41:09.121Z,20.17
2023-01-08T03:43:35.671Z,21.08
2023-01-08T03:46:06.836Z,21.02
2023-01-08T03:48:34.946Z,19.65
2023-01-08T03:51:01.676Z,18.63
2023-01-08T03:53:28.278Z,19.27
2023-01-08T03:55:56.531Z,19.33
2023-01-08T03:58:22.799Z,19.55
2023-01-08T04:00:49.670Z,18.52
2023-01-08T04:03:15.955Z,19.08
2023-01-08T04:05:42.783Z,19.10
2023-01-08T04:08:09.048Z,19.52
2023-01-08T04:10:35.617Z,19.45
2023-01-08T04:13:01.998Z,19.08
2023-01-08T04:15:28.648Z,18.13
2023-01-08T04:17:55.145Z,15.80
2023-01-08T04:20:21.965Z,17.42
2023-01-08T04:22:48.251Z,18.95
2023-01-08T04:25:15.087Z,17.83
2023-01-08T04:27:41.389Z,18.00
2023-01-08T04:30:08.621Z,21.13
2023-01-08T04:32:34.874Z,19.23
2023-01-08T04:35:01.460Z,17.92
2023-01-08T04:37:27.772Z,18.88
2023-01-08T04:39:54.675Z,20.92
2023-01-08T04:42:20.964Z,20.27
2023-01-08T04:44:47.723Z,18.92
2023-01-08T04:47:14.503Z,18.35
2023-01-08T04:49:41.432Z,20.00
2023-01-08T04:52:07.854Z,17.95
2023-01-08T04:54:34.458Z,18.55
2023-01-08T04:57:00.723Z,18.63
2023-01-08T04:59:27.318Z,20.77
2023-01-08T05:01:53.780Z,19.10
2023-01-08T05:04:20.381Z,19.63
2023-01-08T05:06:46.783Z,18.08
2023-01-08T05:09:13.338Z,17.40
2023-01-08T05:11:39.684Z,17.10
2023-01-08T05:14:06.321Z,17.17
2023-01-08T05:16:32.668Z,18.15
2023-01-08T05:18:59.333Z,17.17
2023-01-08T05:21:25.626Z,17.33
2023-01-08T05:23:52.343Z,17.92
2023-01-08T05:26:18.713Z,17.65
2023-01-08T05:28:45.332Z,18.05
2023-01-08T05:31:11.877Z,17.52
2023-01-08T05:33:39.107Z,17.73
2023-01-08T05:36:09.450Z,16.55
2023-01-08T05:38:36.282Z,17.77
2023-01-08T05:41:03.223Z,17.05
2023-01-08T05:43:30.053Z,17.02
2023-01-08T05:46:00.736Z,17.45
2023-01-08T05:48:28.923Z,16.42
2023-01-08T05:50:55.482Z,17.80
2023-01-08T05:53:22.384Z,16.58
2023-01-08T05:55:48.731Z,19.33
2023-01-08T05:58:18.373Z,20.83
2023-01-08T06:00:45.444Z,18.70
2023-01-08T06:03:12.372Z,18.38
2023-01-08T06:05:38.678Z,17.10
2023-01-08T06:08:07.174Z,19.13
2023-01-08T06:10:36.512Z,16.80
2023-01-08T06:13:06.927Z,18.95
2023-01-08T06:15:33.213Z,19.65
2023-01-08T06:18:03.971Z,19.17
2023-01-08T06:20:30.492Z,19.60
2023-01-08T06:22:57.703Z,19.65
2023-01-08T06:25:24.175Z,18.95
2023-01-08T06:27:51.852Z,17.50
2023-01-08T06:30:18.424Z,18.45
2023-01-08T06:32:45.311Z,17.85
2023-01-08T06:35:11.585Z,18.10
2023-01-08T06:37:38.622Z,17.45
2023-01-08T06:40:05.466Z,19.33
2023-01-08T06:42:32.124Z,17.80
2023-01-08T06:44:58.399Z,18.67
2023-01-08T06:47:25.006Z,18.42
2023-01-08T06:49:58.600Z,19.05
2023-01-08T06:52:25.305Z,19.13
2023-01-08T06:54:51.635Z,17.48
2023-01-08T06:57:18.509Z,18.10
2023-01-08T06:59:44.872Z,17.80
2023-01-08T07:02:14.205Z,17.48
2023-01-08T07:04:40.890Z,17.60
2023-01-08T07:07:07.993Z,17.83
2023-01-08T07:09:34.985Z,19.35
2023-01-08T07:12:01.864Z,17.58
2023-01-08T07:14:28.116Z,17.70
2023-01-08T07:16:54.995Z,19.30
2023-01-08T07:19:21.372Z,18.48
2023-01-08T07:21:48.037Z,17.40
2023-01-08T07:24:14.393Z,17.75
2023-01-08T07:26:41.207Z,16.35
2023-01-08T07:29:07.633Z,19.73
2023-01-08T07:31:34.651Z,18.55
2023-01-08T07:34:01.051Z,18.35
2023-01-08T07:36:27.705Z,18.25
2023-01-08T07:38:54.059Z,19.30
2023-01-08T07:41:20.586Z,17.98
2023-01-08T07:43:47.789Z,19.90
2023-01-08T07:46:15.633Z,18.17
2023-01-08T07:48:41.997Z,18.30
2023-01-08T07:51:09.329Z,19.45
2023-01-08T07:53:36.914Z,19.55
2023-01-08T07:56:09.251Z,19.77
2023-01-08T07:58:35.608Z,19.45
2023-01-08T08:01:03.382Z,17.83
2023-01-08T08:03:29.719Z,17.38
2023-01-08T08:05:56.866Z,18.88
2023-01-08T08:08:23.249Z,18.75
2023-01-08T08:10:49.905Z,18.45
2023-01-08T08:13:16.179Z,17.90
2023-01-08T08:15:42.899Z,17.60
2023-01-08T08:18:09.844Z,20.70
2023-01-08T08:20:37.305Z,18.35
2023-01-08T08:23:09.163Z,19.02
2023-01-08T08:25:36.424Z,20.15
2023-01-08T08:28:04.055Z,18.05
2023-01-08T08:30:33.228Z,17.55
2023-01-08T08:33:01.210Z,19.42
2023-01-08T08:35:28.971Z,18.33
2023-01-08T08:37:56.199Z,20.67
2023-01-08T08:40:23.521Z,21.20
2023-01-08T08:42:58.668Z,21.27
2023-01-08T08:45:26.619Z,19.90
2023-01-08T08:47:53.111Z,20.75
2023-01-08T08:50:20.944Z,20.85
2023-01-08T08:52:48.295Z,20.10
2023-01-08T08:55:16.711Z,21.55
2023-01-08T08:57:44.718Z,20.45
2023-01-08T09:00:12.762Z,21.20
2023-01-08T09:02:39.395Z,22.10
2023-01-08T09:05:06.543Z,21.60
2023-01-08T09:07:33.168Z,20.08
2023-01-08T09:09:59.753Z,23.17
2023-01-08T09:12:26.219Z,22.17
2023-01-08T09:14:54.164Z,21.65
2023-01-08T09:17:20.966Z,21.92
2023-01-08T09:19:47.561Z,22.83
2023-01-08T09:22:14.093Z,19.63
2023-01-08T09:24:40.661Z,23.20
2023-01-08T09:27:08.461Z,21.27
2023-01-08T09:29:36.466Z,23.35
2023-01-08T09:32:06.700Z,24.75
2023-01-08T09:34:35.547Z,23.90
2023-01-08T09:37:02.652Z,24.08
2023-01-08T09:39:29.251Z,23.75
2023-01-08T09:41:58.270Z,24.92
2023-01-08T09:44:30.402Z,23.35
2023-01-08T09:46:57.755Z,21.98
2023-01-08T09:49:47.104Z,23.83
2023-01-08T09:52:15.004Z,19.55
2023-01-08T09:54:41.934Z,23.08
2023-01-08T09:57:19.531Z,22.33
2023-01-08T09:59:47.645Z,23.13
2023-01-08T10:02:22.650Z,23.88
2023-01-08T10:04:57.329Z,22.13
2023-01-08T10:07:27.540Z,21.20
2023-01-08T10:09:55.257Z,22.13
2023-01-08T10:12:28.072Z,21.38
2023-01-08T10:17:27.676Z,21.00
2023-01-08T10:19:54.673Z,22.15
2023-01-08T10:22:24.045Z,21.92
2023-01-08T10:24:51.480Z,21.50
2023-01-08T10:27:19.566Z,19.15
2023-01-08T10:29:46.352Z,19.92
2023-01-08T10:32:36.439Z,19.77
2023-01-08T10:35:07.246Z,19.20
2023-01-08T10:37:41.667Z,19.40
2023-01-08T10:40:37.864Z,17.45
2023-01-08T10:43:29.723Z,18.67
2023-01-08T10:46:02.607Z,39.30
2023-01-08T10:48:44.226Z,40.28
2023-01-08T10:51:18.391Z,20.27
2023-01-08T10:53:44.749Z,28.08
2023-01-08T10:56:29.827Z,22.23
2023-01-08T10:58:56.393Z,21.38
2023-01-08T11:01:25.994Z,17.17
2023-01-08T11:04:21.255Z,17.58
2023-01-08T11:06:48.171Z,17.00
2023-01-08T11:09:30.484Z,16.98
2023-01-08T11:11:58.108Z,19.85
2023-01-08T11:14:37.525Z,17.02
2023-01-08T11:17:11.078Z,17.48
2023-01-08T11:19:39.188Z,16.63
2023-01-08T11:22:20.966Z,16.80
2023-01-08T11:24:49.860Z,16.55
2023-01-08T11:27:26.249Z,16.63
2023-01-08T11:30:12.389Z,17.35
2023-01-08T11:32:42.105Z,17.17
2023-01-08T11:35:18.416Z,17.30
2023-01-08T11:37:59.423Z,17.65
2023-01-08T11:40:28.918Z,17.77
2023-01-08T11:43:17.338Z,19.35
2023-01-08T11:45:49.655Z,18.08
2023-01-08T11:48:38.271Z,18.05
2023-01-08T11:51:35.978Z,17.38
2023-01-08T11:54:29.945Z,33.53
2023-01-08T11:57:24.255Z,37.35
2023-01-08T12:00:20.169Z,37.00
2023-01-08T12:03:02.437Z,20.20
2023-01-08T12:06:04.200Z,37.58
2023-01-08T12:08:44.896Z,52.72
2023-01-08T12:11:11.434Z,25.63
2023-01-08T12:13:57.519Z,23.67
2023-01-08T12:16:39.509Z,51.97
2023-01-08T12:19:14.624Z,29.70
2023-01-08T12:22:04.864Z,17.63
2023-01-08T12:24:45.900Z,16.23
2023-01-08T12:27:54.571Z,16.13
2023-01-08T12:30:45.438Z,24.00
2023-01-08T12:33:34.742Z,19.08
2023-01-08T12:36:07.727Z,21.25
2023-01-08T12:38:42.618Z,42.22
2023-01-08T12:41:19.298Z,28.27
2023-01-08T12:48:18.277Z,21.50
2023-01-08T12:51:01.033Z,19.55
2023-01-08T12:53:41.941Z,21.77
2023-01-08T12:56:34.976Z,17.17
2023-01-08T12:59:04.230Z,26.57
2023-01-08T13:01:37.810Z,39.80
2023-01-08T13:04:07.521Z,23.52
2023-01-08T13:06:35.139Z,22.77
2023-01-08T13:09:02.068Z,21.33
2023-01-08T13:11:31.623Z,19.45
2023-01-08T13:14:10.885Z,19.10
2023-01-08T13:16:43.874Z,24.50
2023-01-08T13:19:28.194Z,24.83
2023-01-08T13:21:57.497Z,29.30
2023-01-08T13:24:41.217Z,23.15
2023-01-08T13:27:16.636Z,22.67
2023-01-08T13:29:48.760Z,23.08
2023-01-08T13:32:44.909Z,27.65
2023-01-08T13:35:13.974Z,36.72
2023-01-08T13:37:48.763Z,32.80
2023-01-08T13:40:42.997Z,23.60
2023-01-08T13:43:24.788Z,37.30
2023-01-08T13:45:59.979Z,28.48
2023-01-08T13:48:30.265Z,55.38
2023-01-08T13:50:56.725Z,26.90
2023-01-08T13:53:24.101Z,25.75
2023-01-08T13:56:06.075Z,22.80
2023-01-08T13:58:40.295Z,29.90
2023-01-08T14:01:09.071Z,25.70
2023-01-08T14:03:37.883Z,20.38
2023-01-08T14:06:12.923Z,39.17
2023-01-08T14:09:00.761Z,26.17
2023-01-08T14:11:32.310Z,17.75
2023-01-08T14:13:59.207Z,21.33
2023-01-08T14:16:25.763Z,22.60
2023-01-08T14:18:59.395Z,24.52
2023-01-08T14:21:26.565Z,21.30
2023-01-08T14:23:53.617Z,19.85
2023-01-08T14:26:31.181Z,19.27
2023-01-08T14:28:58.617Z,18.13
2023-01-08T14:31:26.890Z,17.63
2023-01-08T14:33:58.576Z,17.58
2023-01-08T14:36:25.799Z,17.67
2023-01-08T14:38:53.135Z,16.77
2023-01-08T14:41:46.161Z,18.80
2023-01-08T14:44:13.999Z,18.70
2023-01-08T14:46:46.069Z,19.73
2023-01-08T14:49:31.496Z,20.27
2023-01-08T14:51:59.735Z,20.20
2023-01-08T14:54:32.509Z,20.95
2023-01-08T14:57:00.910Z,29.40
2023-01-08T14:59:37.195Z,19.90
2023-01-08T15:02:07.589Z,18.20
2023-01-08T15:04:34.380Z,20.20
2023-01-08T15:07:27.003Z,20.23
2023-01-08T15:10:03.079Z,20.83
2023-01-08T15:12:31.626Z,19.77
2023-01-08T15:15:11.673Z,20.83
2023-01-08T15:17:39.394Z,19.40
2023-01-08T15:20:14.990Z,19.75
2023-01-08T15:22:44.912Z,20.27
2023-01-08T15:25:37.579Z,22.70
2023-01-08T15:28:04.374Z,22.10
2023-01-08T15:30:37.497Z,20.55
2023-01-08T15:33:16.873Z,18.77
2023-01-08T15:35:43.579Z,18.23
2023-01-08T15:38:09.822Z,25.17
2023-01-08T15:40:36.373Z,20.00
2023-01-08T15:43:11.469Z,17.88
2023-01-08T15:45:44.697Z,16.73
2023-01-08T15:48:11.417Z,17.30
2023-01-08T15:50:41.208Z,18.55
2023-01-08T15:53:29.961Z,18.42
2023-01-08T15:55:56.522Z,17.42
2023-01-08T15:58:22.893Z,17.05
2023-01-08T16:00:49.748Z,14.93
2023-01-08T16:03:16.550Z,16.25
2023-01-08T16:05:43.617Z,17.58
2023-01-08T16:08:10.788Z,16.15
2023-01-08T16:10:37.668Z,16.58
2023-01-08T16:13:04.001Z,16.10
2023-01-08T16:15:30.712Z,15.73
2023-01-08T16:17:58.517Z,16.70
2023-01-08T16:20:25.445Z,16.13
2023-01-08T16:22:51.927Z,18.83
2023-01-08T16:25:18.563Z,16.15
2023-01-08T16:27:44.827Z,15.43
2023-01-08T16:30:16.488Z,15.85
2023-01-08T16:32:43.243Z,16.67
2023-01-08T16:35:10.799Z,16.15
2023-01-08T16:37:38.081Z,16.38
2023-01-08T16:40:05.409Z,16.30
2023-01-08T16:42:31.796Z,14.38
2023-01-08T16:44:58.457Z,15.15
2023-01-08T16:47:24.796Z,13.68
2023-01-08T16:49:51.917Z,14.50
2023-01-08T16:52:18.350Z,15.30
2023-01-08T16:54:45.618Z,14.80
2023-01-08T16:57:12.092Z,13.27
2023-01-08T16:59:38.922Z,14.38
2023-01-08T17:02:05.557Z,13.65
2023-01-08T17:04:32.316Z,13.30
2023-01-08T17:06:58.922Z,14.05
2023-01-08T17:09:25.509Z,14.00
2023-01-08T17:11:51.971Z,13.38
2023-01-08T17:14:18.562Z,14.45
2023-01-08T17:16:46.680Z,13.98
2023-01-08T17:19:14.012Z,15.23
2023-01-08T17:21:40.800Z,12.38
2023-01-08T17:24:08.554Z,19.42
2023-01-08T17:26:35.026Z,16.23
2023-01-08T17:29:01.644Z,20.38
2023-01-08T17:31:28.148Z,21.67
2023-01-08T17:33:54.757Z,23.70
2023-01-08T17:36:25.915Z,20.20
2023-01-08T17:38:53.687Z,26.55
2023-01-08T17:41:39.647Z,26.83
2023-01-08T17:44:08.263Z,21.42
2023-01-08T17:46:36.147Z,22.27
2023-01-08T17:49:03.445Z,18.73
2023-01-08T17:51:31.617Z,15.07
2023-01-08T17:53:59.168Z,16.33
2023-01-08T17:56:25.695Z,20.30
2023-01-08T17:58:52.645Z,15.90
2023-01-08T18:01:19.307Z,13.88
2023-01-08T18:03:46.038Z,16.13
2023-01-08T18:06:12.942Z,15.30
2023-01-08T18:08:40.863Z,14.48
2023-01-08T18:11:08.967Z,14.15
2023-01-08T18:13:36.347Z,14.48
2023-01-08T18:16:05.548Z,15.70
2023-01-08T18:18:32.949Z,14.93
2023-01-08T18:20:59.355Z,15.95
2023-01-08T18:23:26.820Z,14.95
2023-01-08T18:25:53.085Z,15.20
2023-01-08T18:28:19.712Z,13.25
2023-01-08T18:30:46.027Z,16.40
2023-01-08T18:33:13.684Z,17.80
2023-01-08T18:35:40.985Z,14.35
2023-01-08T18:38:15.157Z,14.95
2023-01-08T18:40:45.383Z,13.93
2023-01-08T18:43:12.248Z,15.35
2023-01-08T18:45:38.839Z,14.98
2023-01-08T18:48:07.049Z,14.40
2023-01-08T18:50:33.470Z,15.82
2023-01-08T18:53:03.079Z,16.30
2023-01-08T18:55:29.814Z,16.25
2023-01-08T18:57:56.517Z,16.30
2023-01-08T19:00:25.500Z,14.55
2023-01-08T19:02:52.836Z,16.83
2023-01-08T19:05:19.575Z,17.23
2023-01-08T19:07:46.152Z,16.15
2023-01-08T19:10:12.846Z,14.73
2023-01-08T19:12:39.696Z,15.00
2023-01-08T19:15:06.547Z,13.60
2023-01-08T19:17:33.099Z,16.35
2023-01-08T19:19:59.383Z,15.82
2023-01-08T19:22:26.269Z,16.15
2023-01-08T19:24:53.758Z,16.08
2023-01-08T19:27:20.692Z,14.98
2023-01-08T19:29:47.023Z,14.27
2023-01-08T19:32:13.849Z,14.65
2023-01-08T19:34:40.382Z,14.02
2023-01-08T19:37:07.036Z,17.10
2023-01-08T19:39:33.284Z,17.40
2023-01-08T19:42:19.283Z,16.52
2023-01-08T19:44:45.627Z,21.08
2023-01-08T19:47:12.430Z,20.55
2023-01-08T19:49:42.215Z,21.23
2023-01-08T19:52:09.034Z,21.10
2023-01-08T19:54:37.070Z,19.90
2023-01-08T19:57:03.718Z,19.52
2023-01-08T19:59:29.987Z,18.65
2023-01-08T20:01:56.736Z,18.52
2023-01-08T20:04:23.153Z,16.88
2023-01-08T20:06:51.670Z,16.75
2023-01-08T20:09:18.064Z,18.65
2023-01-08T20:11:44.824Z,21.52
2023-01-08T20:14:11.128Z,21.27
2023-01-08T20:16:37.809Z,18.13
2023-01-08T20:19:04.272Z,18.40
2023-01-08T20:21:32.657Z,19.08
2023-01-08T20:24:08.870Z,20.10
2023-01-08T20:26:36.505Z,20.40
2023-01-08T20:29:03.902Z,20.90
2023-01-08T20:31:32.251Z,17.70
2023-01-08T20:34:00.573Z,17.77
2023-01-08T20:36:31.197Z,18.98
2023-01-08T20:39:00.671Z,17.42
2023-01-08T20:41:28.163Z,18.02
2023-01-08T20:43:57.684Z,18.42
2023-01-08T20:46:29.035Z,18.88
2023-01-08T20:49:02.827Z,17.77
2023-01-08T20:51:33.977Z,20.27
2023-01-08T20:54:02.134Z,17.92
2023-01-08T20:56:28.994Z,17.42
2023-01-08T20:58:56.804Z,19.08
2023-01-08T21:01:27.342Z,19.08
2023-01-08T21:03:56.140Z,18.70
2023-01-08T21:06:27.068Z,20.77
2023-01-08T21:08:56.010Z,19.00
2023-01-08T21:11:24.094Z,20.70
2023-01-08T21:13:50.876Z,18.30
2023-01-08T21:16:23.214Z,18.27
2023-01-08T21:18:50.464Z,19.43
2023-01-08T21:21:23.321Z,17.85
2023-01-08T21:23:50.153Z,18.42
2023-01-08T21:26:17.523Z,21.67
2023-01-08T21:28:44.925Z,19.25
2023-01-08T21:31:14.797Z,17.85
2023-01-08T21:33:41.425Z,19.40
2023-01-08T21:36:11.163Z,18.60
2023-01-08T21:38:38.172Z,17.77
2023-01-08T21:41:08.080Z,18.92
2023-01-08T21:43:53.135Z,19.08
2023-01-08T21:46:23.712Z,21.10
2023-01-08T21:48:51.590Z,20.55
2023-01-08T21:51:36.546Z,21.35
2023-01-08T21:54:03.334Z,21.02
2023-01-08T21:56:30.517Z,21.05
2023-01-08T21:58:56.891Z,23.25
2023-01-08T22:01:23.546Z,23.58
2023-01-08T22:03:49.936Z,20.67
2023-01-08T22:06:16.876Z,20.65
2023-01-08T22:08:44.481Z,20.40
2023-01-08T22:11:11.096Z,18.98
2023-01-08T22:13:38.561Z,20.42
2023-01-08T22:16:09.049Z,19.88
2023-01-08T22:18:36.604Z,19.42
2023-01-08T22:21:08.819Z,20.65
2023-01-08T22:23:35.512Z,20.58
2023-01-08T22:26:07.836Z,19.92
2023-01-08T22:28:38.574Z,20.02
2023-01-08T22:31:11.503Z,19.63
2023-01-08T22:33:39.087Z,20.55
2023-01-08T22:36:08.959Z,20.80
2023-01-08T22:38:36.074Z,20.50
2023-01-08T22:41:03.219Z,18.02
2023-01-08T22:43:29.532Z,20.20
2023-01-08T22:45:58.438Z,19.17
2023-01-08T22:48:26.485Z,20.80
2023-01-08T22:50:53.178Z,19.65
2023-01-08T22:53:19.921Z,19.92
2023-01-08T22:55:47.728Z,20.15
2023-01-08T22:58:17.267Z,19.52
2023-01-08T23:00:44.513Z,19.92
2023-01-08T23:03:12.602Z,20.95
2023-01-08T23:05:39.382Z,19.45
2023-01-08T23:08:06.902Z,19.95
2023-01-08T23:10:33.829Z,19.48
2023-01-08T23:13:00.496Z,20.42
2023-01-08T23:15:27.323Z,19.85
2023-01-08T23:17:53.619Z,17.17
2023-01-08T23:20:20.568Z,21.05
2023-01-08T23:22:47.882Z,19.73
2023-01-08T23:25:15.059Z,18.35
2023-01-08T23:27:41.473Z,19.70
2023-01-08T23:30:08.818Z,19.73
2023-01-08T23:32:35.220Z,18.35
2023-01-08T23:35:02.156Z,19.10
2023-01-08T23:37:28.385Z,19.23
2023-01-08T23:39:54.975Z,18.88
2023-01-08T23:42:21.439Z,19.63
2023-01-08T23:44:49.022Z,20.75
2023-01-08T23:47:15.355Z,20.35
2023-01-08T23:49:42.023Z,20.05
2023-01-08T23:52:09.307Z,22.15
2023-01-08T23:54:36.193Z,19.40
2023-01-08T23:57:05.452Z,19.25
2023-01-08T23:59:32.349Z,19.40
